Time;durP1;ratioP1;P1;durP2;ratioP2;P2;SDS_P1;SDS_P2;PMS_P1;PMS_P2;Temp;Humidity;BMP_temperature;BMP_pressure;BME280_temperature;BME280_humidity;BME280_pressure;Samples;Min_cycle;Max_cycle;Signal;HPM_P1;HPM_P2
2022/07/20 00:02:03;;;;;;;4.97;2.13;;;19.40;1.00;;;;;;5022534;28;34352;-74
2022/07/20 00:04:29;;;;;;;3.40;2.08;;;19.40;1.00;;;;;;5039845;28;34435;-73
2022/07/20 00:06:56;;;;;;;6.28;2.33;;;19.30;1.00;;;;;;5005878;28;34366;-73
2022/07/20 00:12:23;;;;;;;6.32;2.13;;;19.20;1.00;;;;;;5029745;28;34617;-74
2022/07/20 00:14:49;;;;;;;3.42;2.63;;;19.20;1.30;;;;;;5022149;28;36099;-73
2022/07/20 00:17:15;;;;;;;7.32;2.17;;;19.10;1.00;;;;;;5021737;28;34276;-74
2022/07/20 00:19:40;;;;;;;9.70;2.80;;;19.00;1.00;;;;;;5005676;28;33782;-73
2022/07/20 00:22:06;;;;;;;3.67;2.35;;;19.00;1.00;;;;;;5033702;28;34344;-73
2022/07/20 00:24:32;;;;;;;3.67;2.17;;;19.00;1.00;;;;;;5038712;28;34304;-74
2022/07/20 00:26:58;;;;;;;2.13;1.92;;;19.00;1.00;;;;;;5018591;28;34287;-73
2022/07/20 00:29:24;;;;;;;2.30;2.03;;;19.00;1.00;;;;;;5019041;28;34212;-73
2022/07/20 00:31:50;;;;;;;2.58;2.38;;;18.90;1.00;;;;;;5021790;28;34523;-73
2022/07/20 00:34:16;;;;;;;2.75;2.40;;;18.90;1.00;;;;;;5047921;28;35795;-73
2022/07/20 00:36:41;;;;;;;5.80;2.53;;;18.80;1.00;;;;;;5021973;28;34202;-73
2022/07/20 00:39:07;;;;;;;4.10;2.45;;;18.90;1.00;;;;;;5039813;27;34167;-74
2022/07/20 00:41:33;;;;;;;9.20;2.92;;;18.80;1.00;;;;;;5084100;27;34125;-73
2022/07/20 00:44:05;;;;;;;3.65;2.20;;;18.80;1.00;;;;;;5060488;27;34351;-73
2022/07/20 00:46:34;;;;;;;4.72;2.17;;;18.80;1.00;;;;;;5082665;27;34186;-74
2022/07/20 00:49:00;;;;;;;2.65;2.30;;;18.80;1.00;;;;;;5022665;28;34328;-73
2022/07/20 00:51:26;;;;;;;3.80;2.67;;;18.70;1.00;;;;;;5022245;28;34578;-73
2022/07/20 00:53:52;;;;;;;4.13;2.70;;;18.70;1.00;;;;;;5022385;28;35408;-73
2022/07/20 00:56:19;;;;;;;3.15;2.30;;;18.70;1.00;;;;;;5022186;28;34477;-73
2022/07/20 00:58:46;;;;;;;3.17;2.20;;;18.60;1.00;;;;;;5016632;28;34315;-73
2022/07/20 01:01:13;;;;;;;7.80;2.15;;;18.60;1.00;;;;;;5026259;28;34080;-74
2022/07/20 01:03:40;;;;;;;2.58;2.28;;;18.60;1.00;;;;;;5022886;28;34406;-73
2022/07/20 01:06:06;;;;;;;3.10;2.45;;;18.60;1.00;;;;;;5007965;28;34215;-74
2022/07/20 01:08:32;;;;;;;3.28;2.20;;;18.50;1.00;;;;;;5045696;28;34245;-74
2022/07/20 01:10:59;;;;;;;2.90;2.65;;;18.50;1.00;;;;;;5034006;28;34328;-73
2022/07/20 01:13:25;;;;;;;3.67;2.72;;;18.50;1.00;;;;;;5024442;28;35787;-73
2022/07/20 01:15:51;;;;;;;8.02;2.50;;;18.50;1.00;;;;;;5024467;28;34069;-73
2022/07/20 01:18:17;;;;;;;2.47;2.28;;;18.50;1.00;;;;;;5024080;28;34236;-73
2022/07/20 01:20:47;;;;;;;4.88;2.40;;;18.50;1.00;;;;;;5041942;28;33992;-73
2022/07/20 01:23:14;;;;;;;2.63;2.35;;;18.50;1.00;;;;;;5017073;28;35874;-73
2022/07/20 01:25:40;;;;;;;2.53;2.20;;;18.40;1.00;;;;;;5024403;28;34114;-74
2022/07/20 01:28:08;;;;;;;4.53;2.50;;;18.50;1.00;;;;;;5024242;28;34247;-73
2022/07/20 01:30:35;;;;;;;2.50;2.30;;;18.40;1.00;;;;;;5024178;28;34344;-74
2022/07/20 01:33:01;;;;;;;7.28;2.70;;;18.40;1.00;;;;;;5040887;28;35527;-73
2022/07/20 01:35:27;;;;;;;3.80;2.30;;;18.40;1.00;;;;;;5024137;28;34302;-73
2022/07/20 01:37:52;;;;;;;3.83;2.60;;;18.40;1.00;;;;;;5041873;28;34148;-73
2022/07/20 01:40:18;;;;;;;2.97;2.58;;;18.40;1.00;;;;;;5020410;28;34664;-73
2022/07/20 01:42:44;;;;;;;5.38;2.20;;;18.40;1.00;;;;;;5037355;28;36404;-73
2022/07/20 01:45:11;;;;;;;4.38;2.30;;;18.40;1.00;;;;;;5004679;28;34007;-74
2022/07/20 01:47:36;;;;;;;3.10;2.45;;;18.40;1.00;;;;;;5022238;28;34181;-73
2022/07/20 01:50:03;;;;;;;3.42;2.70;;;18.30;1.00;;;;;;5024149;28;34008;-73
2022/07/20 01:52:29;;;;;;;3.17;2.30;;;18.30;1.00;;;;;;5023339;28;35597;-73
2022/07/20 01:54:54;;;;;;;2.90;2.53;;;18.20;1.00;;;;;;5041371;28;34206;-73
2022/07/20 01:57:20;;;;;;;3.05;2.33;;;18.20;1.00;;;;;;5023985;28;34281;-73
2022/07/20 01:59:46;;;;;;;4.50;2.42;;;18.20;1.00;;;;;;5041706;28;34193;-73
2022/07/20 02:02:12;;;;;;;7.40;2.70;;;18.20;1.00;;;;;;5006688;28;35494;-74
2022/07/20 02:04:38;;;;;;;3.10;2.50;;;18.10;1.00;;;;;;5023255;28;34380;-74
2022/07/20 02:07:04;;;;;;;2.70;2.20;;;18.10;1.00;;;;;;5041419;28;34186;-74
2022/07/20 02:09:30;;;;;;;3.92;2.40;;;18.10;1.00;;;;;;5023405;28;34128;-74
2022/07/20 02:11:56;;;;;;;3.30;2.25;;;18.10;1.00;;;;;;5041292;28;34459;-74
2022/07/20 02:14:22;;;;;;;3.08;2.58;;;18.10;1.00;;;;;;5033025;28;34118;-74
2022/07/20 02:16:48;;;;;;;5.45;2.25;;;18.00;1.00;;;;;;5024757;28;34167;-73
2022/07/20 02:19:14;;;;;;;3.13;2.35;;;18.00;1.00;;;;;;5040464;28;34235;-73
2022/07/20 02:21:39;;;;;;;3.08;2.70;;;18.00;1.00;;;;;;5040261;28;34365;-73
2022/07/20 02:24:06;;;;;;;2.40;2.20;;;17.90;1.00;;;;;;5023317;28;34237;-73
2022/07/20 02:26:32;;;;;;;2.17;2.05;;;17.90;1.10;;;;;;5007274;28;34214;-74
2022/07/20 02:28:58;;;;;;;5.15;2.50;;;17.90;1.10;;;;;;5035518;27;34177;-73
2022/07/20 02:31:24;;;;;;;2.72;2.28;;;17.90;1.20;;;;;;5052877;28;35205;-73
2022/07/20 02:33:51;;;;;;;3.97;2.47;;;17.90;1.20;;;;;;5023095;28;34166;-74
2022/07/20 02:36:17;;;;;;;3.65;2.92;;;17.90;1.30;;;;;;5041248;28;34214;-73
2022/07/20 02:38:43;;;;;;;4.40;2.83;;;17.90;1.20;;;;;;5056881;28;34054;-73
2022/07/20 02:41:10;;;;;;;2.83;2.55;;;17.80;1.20;;;;;;5023396;28;35655;-73
2022/07/20 02:43:36;;;;;;;4.93;2.58;;;17.80;1.40;;;;;;5007025;28;34466;-73
2022/07/20 02:46:02;;;;;;;3.03;2.60;;;17.80;1.30;;;;;;5022695;28;34352;-73
2022/07/20 02:48:29;;;;;;;2.80;2.40;;;17.80;1.40;;;;;;5038491;28;34646;-73
2022/07/20 02:50:55;;;;;;;3.42;2.60;;;17.80;1.60;;;;;;5031864;28;35247;-74
2022/07/20 02:53:21;;;;;;;4.40;2.60;;;17.70;1.70;;;;;;5022871;28;34013;-73
2022/07/20 02:55:47;;;;;;;3.50;2.90;;;17.70;1.70;;;;;;5023198;28;34087;-73
2022/07/20 02:58:13;;;;;;;4.68;2.65;;;17.70;1.80;;;;;;5016246;28;34082;-74
2022/07/20 03:00:41;;;;;;;3.08;2.72;;;17.60;1.90;;;;;;5036512;28;35220;-74
2022/07/20 03:03:07;;;;;;;4.15;2.80;;;17.60;2.00;;;;;;5018884;28;34184;-73
2022/07/20 03:05:34;;;;;;;2.70;2.35;;;17.60;2.00;;;;;;5022197;28;34325;-73
2022/07/20 03:08:00;;;;;;;3.90;2.88;;;17.60;2.00;;;;;;5104559;27;34126;-74
2022/07/20 03:10:26;;;;;;;3.83;2.67;;;17.50;2.10;;;;;;5048075;27;36307;-74
2022/07/20 03:12:52;;;;;;;3.78;2.35;;;17.50;2.30;;;;;;5017282;28;34128;-73
2022/07/20 03:15:18;;;;;;;2.65;2.40;;;17.50;2.20;;;;;;5021811;28;34134;-73
2022/07/20 03:17:47;;;;;;;4.80;2.83;;;17.50;2.30;;;;;;5023347;28;34017;-73
2022/07/20 03:20:18;;;;;;;2.83;2.63;;;17.50;2.60;;;;;;5022396;28;36834;-73
2022/07/20 03:22:44;;;;;;;3.05;2.58;;;17.50;3.00;;;;;;5025641;28;34079;-74
2022/07/20 03:25:11;;;;;;;4.13;3.10;;;17.50;2.50;;;;;;5044278;28;34280;-73
2022/07/20 03:27:37;;;;;;;4.70;2.80;;;17.40;2.60;;;;;;5032446;28;35558;-73
2022/07/20 03:30:05;;;;;;;3.03;2.63;;;17.40;2.70;;;;;;5006007;28;35639;-74
2022/07/20 03:32:31;;;;;;;3.00;2.55;;;17.40;2.90;;;;;;5023084;28;34086;-74
2022/07/20 03:34:57;;;;;;;3.13;2.55;;;17.40;2.70;;;;;;5006251;28;34160;-74
2022/07/20 03:37:23;;;;;;;5.32;2.90;;;17.40;2.70;;;;;;5026034;28;34294;-74
2022/07/20 03:39:49;;;;;;;2.88;2.63;;;17.40;2.80;;;;;;5024215;28;35605;-74
2022/07/20 03:42:15;;;;;;;3.63;2.60;;;17.40;2.90;;;;;;5012186;28;34057;-74
2022/07/20 03:44:40;;;;;;;2.72;2.42;;;17.40;2.90;;;;;;5040532;28;34205;-74
2022/07/20 03:47:08;;;;;;;3.25;2.20;;;17.40;2.80;;;;;;5015126;28;34160;-75
2022/07/20 03:49:33;;;;;;;4.38;2.95;;;17.40;2.80;;;;;;5039256;28;34294;-74
2022/07/20 03:51:59;;;;;;;5.55;2.83;;;17.40;2.90;;;;;;5034975;28;34196;-74
2022/07/20 03:54:25;;;;;;;6.20;2.95;;;17.40;3.10;;;;;;5042735;28;34130;-74
2022/07/20 03:56:51;;;;;;;9.55;2.65;;;17.40;3.10;;;;;;5022382;28;34126;-74
2022/07/20 03:59:17;;;;;;;10.02;2.90;;;17.40;3.20;;;;;;5005675;28;36495;-74
2022/07/20 04:01:43;;;;;;;10.70;3.38;;;17.40;3.20;;;;;;5036335;28;34125;-74
2022/07/20 04:04:09;;;;;;;4.15;2.90;;;17.40;3.30;;;;;;5008814;28;34097;-74
2022/07/20 04:06:35;;;;;;;5.53;2.72;;;17.50;3.40;;;;;;5022349;28;34490;-74
2022/07/20 04:09:02;;;;;;;3.80;2.63;;;17.50;3.30;;;;;;5005917;28;35789;-76
2022/07/20 04:11:28;;;;;;;4.32;2.90;;;17.60;3.30;;;;;;5022535;28;34160;-76
2022/07/20 04:13:54;;;;;;;3.40;3.05;;;17.70;3.10;;;;;;5024779;28;34314;-76
2022/07/20 04:16:20;;;;;;;2.42;2.22;;;17.70;2.90;;;;;;5020406;28;34164;-76
2022/07/20 04:18:46;;;;;;;3.53;2.55;;;17.80;2.90;;;;;;5025358;28;34349;-76
2022/07/20 04:21:12;;;;;;;3.45;2.60;;;17.80;2.90;;;;;;5042906;28;34043;-73
2022/07/20 04:23:38;;;;;;;3.75;2.53;;;17.90;3.00;;;;;;5008822;28;34230;-73
2022/07/20 04:26:04;;;;;;;3.63;2.65;;;17.90;3.00;;;;;;5042709;28;34040;-73
2022/07/20 04:28:30;;;;;;;3.17;2.80;;;17.80;3.00;;;;;;5021498;28;34409;-72
2022/07/20 04:30:56;;;;;;;3.72;2.70;;;17.90;3.10;;;;;;5006015;28;34223;-74
2022/07/20 04:33:21;;;;;;;3.00;2.33;;;17.90;3.20;;;;;;5047111;28;34669;-73
2022/07/20 04:35:47;;;;;;;3.20;2.53;;;17.90;3.20;;;;;;5030307;27;34172;-73
2022/07/20 04:38:17;;;;;;;3.83;2.80;;;17.90;3.20;;;;;;5031243;28;35474;-73
2022/07/20 04:40:44;;;;;;;4.55;2.90;;;17.90;3.30;;;;;;5034749;28;34144;-73
2022/07/20 04:43:10;;;;;;;5.57;3.00;;;17.90;3.30;;;;;;5042844;28;35300;-73
2022/07/20 04:45:36;;;;;;;3.10;2.60;;;17.90;3.30;;;;;;5008556;28;34205;-73
2022/07/20 04:48:02;;;;;;;3.17;2.28;;;17.90;3.30;;;;;;5027378;28;35214;-73
2022/07/20 04:50:28;;;;;;;3.00;2.70;;;18.00;3.30;;;;;;5029164;28;34378;-73
2022/07/20 04:52:54;;;;;;;4.43;2.47;;;18.00;3.40;;;;;;5000308;28;34685;-73
2022/07/20 04:55:20;;;;;;;3.33;2.88;;;18.00;3.40;;;;;;4992417;28;34393;-73
2022/07/20 04:57:46;;;;;;;3.13;2.70;;;18.10;3.40;;;;;;5035861;28;36463;-73
2022/07/20 05:00:12;;;;;;;3.67;2.70;;;18.10;3.40;;;;;;4984694;28;34079;-73
2022/07/20 05:02:38;;;;;;;4.35;3.28;;;18.20;3.40;;;;;;4978451;28;34202;-73
2022/07/20 05:05:05;;;;;;;2.78;2.58;;;18.30;3.50;;;;;;4992735;28;35326;-73
2022/07/20 05:07:31;;;;;;;6.90;3.30;;;18.30;3.50;;;;;;4983396;28;35954;-73
2022/07/20 05:09:57;;;;;;;2.88;2.50;;;18.30;3.50;;;;;;4989652;28;34540;-73
2022/07/20 05:12:23;;;;;;;3.53;2.30;;;18.30;3.50;;;;;;5022897;27;34490;-73
2022/07/20 05:14:49;;;;;;;4.03;2.90;;;18.40;3.50;;;;;;4990741;28;34275;-73
2022/07/20 05:17:15;;;;;;;3.25;2.78;;;18.50;3.70;;;;;;4995246;28;34121;-73
2022/07/20 05:19:41;;;;;;;11.95;3.65;;;18.60;3.60;;;;;;5001567;28;35338;-74
2022/07/20 05:22:07;;;;;;;4.97;3.13;;;18.70;3.50;;;;;;4994788;28;34327;-73
2022/07/20 05:24:33;;;;;;;5.85;2.90;;;18.90;3.50;;;;;;4990263;28;34339;-73
2022/07/20 05:26:59;;;;;;;5.32;3.08;;;19.10;3.20;;;;;;4996608;28;35733;-73
2022/07/20 05:29:27;;;;;;;5.35;3.45;;;19.60;2.80;;;;;;4992697;28;34415;-73
2022/07/20 05:31:53;;;;;;;5.10;3.30;;;20.10;2.40;;;;;;5010356;28;34342;-73
2022/07/20 05:34:19;;;;;;;4.43;2.85;;;20.60;1.70;;;;;;4993211;28;34297;-73
2022/07/20 05:36:45;;;;;;;6.40;2.83;;;21.30;1.00;;;;;;5002957;28;35612;-73
2022/07/20 05:39:11;;;;;;;4.07;2.90;;;21.70;1.00;;;;;;4976235;28;34270;-73
2022/07/20 05:41:37;;;;;;;3.33;3.00;;;22.30;1.00;;;;;;4976452;28;34128;-73
2022/07/20 05:44:03;;;;;;;3.78;2.60;;;23.00;1.00;;;;;;4998729;28;34488;-74
2022/07/20 05:46:29;;;;;;;3.97;2.88;;;23.50;1.00;;;;;;5004303;28;35844;-74
2022/07/20 05:48:55;;;;;;;4.88;2.90;;;23.90;1.00;;;;;;5003438;28;34274;-74
2022/07/20 05:51:21;;;;;;;8.32;3.13;;;24.20;1.00;;;;;;4986136;28;34572;-74
2022/07/20 05:53:46;;;;;;;6.35;2.72;;;24.40;1.00;;;;;;5026615;28;34272;-75
2022/07/20 05:56:12;;;;;;;8.13;2.58;;;24.50;1.00;;;;;;5021257;28;34538;-74
2022/07/20 05:58:38;;;;;;;3.45;2.70;;;24.60;1.00;;;;;;5033411;27;34281;-75
2022/07/20 06:01:04;;;;;;;4.57;2.50;;;24.50;1.00;;;;;;5007295;28;34198;-75
2022/07/20 06:03:30;;;;;;;3.15;2.78;;;24.50;1.00;;;;;;5003563;28;34414;-74
2022/07/20 06:05:56;;;;;;;11.95;3.08;;;24.70;1.00;;;;;;5021828;28;35459;-76
2022/07/20 06:08:22;;;;;;;6.70;2.80;;;24.60;1.00;;;;;;5033078;28;34249;-77
2022/07/20 06:10:48;;;;;;;6.95;3.40;;;24.40;1.00;;;;;;5030954;27;34331;-77
2022/07/20 06:13:14;;;;;;;6.50;3.30;;;24.10;1.00;;;;;;5024202;28;34070;-75
2022/07/20 06:15:40;;;;;;;10.55;3.78;;;23.90;1.00;;;;;;5024393;28;34197;-75
2022/07/20 06:18:07;;;;;;;21.83;6.40;;;23.80;1.00;;;;;;5009523;28;34365;-74
2022/07/20 06:20:35;;;;;;;9.60;6.35;;;23.80;1.00;;;;;;5026550;28;34363;-75
2022/07/20 06:23:01;;;;;;;4.90;3.63;;;23.80;1.00;;;;;;5031689;28;34193;-74
2022/07/20 06:25:27;;;;;;;6.43;4.18;;;24.00;1.00;;;;;;5023218;28;35892;-74
2022/07/20 06:27:53;;;;;;;12.43;7.80;;;24.10;1.00;;;;;;5098291;27;34228;-76
2022/07/20 06:30:19;;;;;;;15.88;8.10;;;24.20;1.00;;;;;;5063151;27;34368;-77
2022/07/20 06:32:45;;;;;;;18.45;9.73;;;24.40;1.00;;;;;;5022020;28;34113;-75
2022/07/20 06:35:11;;;;;;;16.35;10.43;;;24.50;1.00;;;;;;5028821;28;35787;-75
2022/07/20 06:37:38;;;;;;;16.33;10.18;;;24.80;1.00;;;;;;5025080;28;34443;-74
2022/07/20 06:40:05;;;;;;;17.27;10.77;;;25.10;1.00;;;;;;5010512;28;34352;-75
2022/07/20 06:42:31;;;;;;;14.63;10.18;;;25.40;1.00;;;;;;5021957;28;34496;-78
2022/07/20 06:44:57;;;;;;;13.13;9.98;;;25.70;1.00;;;;;;5035250;28;36157;-76
2022/07/20 06:47:23;;;;;;;16.30;10.88;;;25.70;1.00;;;;;;5041892;28;34092;-75
2022/07/20 06:49:49;;;;;;;15.60;10.60;;;25.80;1.00;;;;;;5028950;28;34103;-75
2022/07/20 06:52:15;;;;;;;15.60;10.57;;;25.90;1.00;;;;;;5025677;27;35386;-75
2022/07/20 06:55:00;;;;;;;18.73;10.57;;;25.80;1.00;;;;;;5027090;28;34524;-74
2022/07/20 06:57:26;;;;;;;18.08;11.07;;;25.80;1.00;;;;;;5036230;28;34439;-74
2022/07/20 06:59:52;;;;;;;15.15;11.10;;;25.80;1.00;;;;;;5033207;27;34269;-75
2022/07/20 07:02:18;;;;;;;20.27;10.95;;;25.70;1.00;;;;;;5040622;28;34349;-75
2022/07/20 07:04:45;;;;;;;16.90;11.38;;;25.70;1.00;;;;;;5028859;28;35844;-74
2022/07/20 07:07:11;;;;;;;14.57;10.27;;;25.70;1.00;;;;;;5031572;28;34404;-74
2022/07/20 07:09:37;;;;;;;19.50;11.55;;;25.60;1.00;;;;;;5016314;28;35232;-74
2022/07/20 07:12:03;;;;;;;17.95;10.88;;;25.60;1.00;;;;;;5031753;28;34141;-75
2022/07/20 07:14:29;;;;;;;22.85;11.45;;;25.60;1.00;;;;;;5002900;28;36898;-75
2022/07/20 07:16:55;;;;;;;17.30;11.00;;;25.60;1.00;;;;;;5006421;28;34117;-75
2022/07/20 07:19:21;;;;;;;17.65;10.52;;;25.50;1.00;;;;;;5041799;27;35522;-75
2022/07/20 07:21:47;;;;;;;14.52;11.40;;;25.60;1.00;;;;;;5047166;27;34497;-76
2022/07/20 07:24:14;;;;;;;17.58;11.82;;;25.60;1.00;;;;;;5028467;28;35549;-75
2022/07/20 07:26:41;;;;;;;15.23;10.82;;;25.80;1.00;;;;;;5050580;27;35451;-75
2022/07/20 07:29:08;;;;;;;18.90;11.65;;;26.00;1.30;;;;;;5043209;27;34056;-77
2022/07/20 07:31:34;;;;;;;16.45;10.43;;;26.10;1.20;;;;;;5023480;28;34202;-76
2022/07/20 07:34:01;;;;;;;18.35;11.23;;;26.00;1.30;;;;;;5058649;28;36081;-77
2022/07/20 07:36:27;;;;;;;15.65;10.75;;;26.00;1.80;;;;;;5029448;27;34424;-78
2022/07/20 07:38:53;;;;;;;17.45;11.45;;;25.90;2.00;;;;;;5030110;27;34150;-76
2022/07/20 07:41:19;;;;;;;16.08;11.23;;;25.70;2.50;;;;;;5026357;28;34546;-76
2022/07/20 07:43:45;;;;;;;16.08;11.15;;;25.60;3.00;;;;;;5028844;28;36006;-76
2022/07/20 07:46:10;;;;;;;14.00;10.18;;;25.40;3.20;;;;;;5047758;27;34294;-77
2022/07/20 07:48:36;;;;;;;17.65;10.98;;;25.20;3.50;;;;;;5044350;27;34199;-77
2022/07/20 07:51:02;;;;;;;16.77;11.18;;;25.10;4.10;;;;;;5029000;28;34157;-78
2022/07/20 07:53:29;;;;;;;17.45;10.93;;;25.10;4.50;;;;;;5030525;27;35608;-78
2022/07/20 07:55:55;;;;;;;14.32;10.73;;;25.10;4.70;;;;;;5027964;27;34891;-77
2022/07/20 07:58:21;;;;;;;16.15;10.88;;;25.10;4.60;;;;;;5016291;28;34442;-78
2022/07/20 08:00:47;;;;;;;13.77;10.02;;;25.20;4.60;;;;;;5017772;28;34424;-77
2022/07/20 08:03:13;;;;;;;14.50;10.30;;;25.30;4.60;;;;;;5042258;28;35649;-77
2022/07/20 08:05:39;;;;;;;13.77;9.82;;;25.70;4.60;;;;;;5029744;27;34865;-78
2022/07/20 08:08:08;;;;;;;16.95;10.07;;;26.00;4.20;;;;;;5020417;28;34609;-76
2022/07/20 08:10:34;;;;;;;13.02;9.68;;;26.20;4.00;;;;;;5001736;28;34445;-76
2022/07/20 08:13:00;;;;;;;14.07;10.63;;;26.30;3.80;;;;;;5019379;28;35806;-77
2022/07/20 08:15:26;;;;;;;14.98;10.45;;;26.40;3.60;;;;;;5064161;28;34465;-76
2022/07/20 08:17:52;;;;;;;16.33;10.95;;;26.50;3.70;;;;;;5053314;28;34335;-76
2022/07/20 08:20:22;;;;;;;13.15;9.55;;;26.50;3.70;;;;;;5013220;28;34349;-76
2022/07/20 08:22:49;;;;;;;15.07;10.32;;;26.50;3.50;;;;;;5005928;28;35780;-76
2022/07/20 08:25:15;;;;;;;13.38;9.38;;;26.60;3.70;;;;;;5021102;28;34797;-76
2022/07/20 08:27:41;;;;;;;16.23;9.75;;;27.00;3.50;;;;;;5022336;28;34184;-76
2022/07/20 08:30:07;;;;;;;15.40;8.60;;;27.40;3.20;;;;;;5056997;27;34498;-76
2022/07/20 08:32:33;;;;;;;12.25;9.05;;;27.90;2.10;;;;;;5005721;28;35930;-77
2022/07/20 08:34:59;;;;;;;11.68;8.48;;;28.50;1.80;;;;;;5044392;27;34366;-77
2022/07/20 08:37:26;;;;;;;10.52;8.18;;;28.90;1.00;;;;;;5017808;28;34215;-76
2022/07/20 08:39:52;;;;;;;10.98;8.80;;;29.20;1.00;;;;;;4996946;28;34146;-77
2022/07/20 08:42:18;;;;;;;12.00;8.07;;;29.20;1.00;;;;;;5033507;28;35832;-78
2022/07/20 08:44:45;;;;;;;10.88;7.63;;;29.50;1.00;;;;;;5023496;28;35465;-78
2022/07/20 08:47:12;;;;;;;9.80;6.95;;;29.80;1.00;;;;;;5022123;28;34311;-77
2022/07/20 08:49:44;;;;;;;9.27;6.35;;;30.20;1.00;;;;;;5017719;27;34234;-78
2022/07/20 08:52:10;;;;;;;11.77;6.38;;;30.50;1.00;;;;;;5058335;27;36706;-77
2022/07/20 08:54:37;;;;;;;7.43;6.22;;;30.50;1.00;;;;;;5021296;28;34774;-78
2022/07/20 08:57:08;;;;;;;11.10;6.53;;;30.70;1.00;;;;;;5020592;27;35482;-76
2022/07/20 08:59:35;;;;;;;9.52;6.45;;;30.80;1.00;;;;;;5037481;27;34479;-77
2022/07/20 09:02:04;;;;;;;12.45;6.80;;;31.10;1.00;;;;;;5027676;27;36232;-76
2022/07/20 09:04:31;;;;;;;8.77;6.75;;;31.10;1.00;;;;;;5033866;27;34098;-77
2022/07/20 09:06:57;;;;;;;11.05;7.05;;;31.00;1.00;;;;;;5018829;28;34185;-77
2022/07/20 09:09:23;;;;;;;8.15;7.07;;;30.70;1.00;;;;;;5035505;28;34301;-77
2022/07/20 09:11:50;;;;;;;9.75;7.03;;;30.60;1.00;;;;;;5020311;27;35881;-76
2022/07/20 09:14:40;;;;;;;9.20;7.22;;;30.70;1.00;;;;;;5032252;27;34101;-77
2022/07/20 09:17:16;;;;;;;11.23;7.13;;;30.80;1.00;;;;;;5015161;27;34276;-79
2022/07/20 09:19:59;;;;;;;10.95;6.60;;;31.00;1.00;;;;;;5004417;28;34479;-81
2022/07/20 09:22:40;;;;;;;7.35;6.15;;;31.20;1.00;;;;;;5018905;27;36604;-79
2022/07/20 09:25:14;;;;;;;12.82;6.32;;;31.20;1.00;;;;;;5032574;28;33802;-77
2022/07/20 09:27:42;;;;;;;8.57;6.43;;;31.30;1.00;;;;;;5018272;28;34644;-78
2022/07/20 09:30:13;;;;;;;8.68;6.57;;;31.40;1.00;;;;;;5010289;28;34458;-77
2022/07/20 09:32:56;;;;;;;8.65;6.15;;;31.50;1.00;;;;;;5021566;28;34369;-79
2022/07/20 09:35:27;;;;;;;8.98;6.28;;;31.60;1.00;;;;;;4994556;27;34446;-77
2022/07/20 09:37:56;;;;;;;9.75;6.38;;;31.80;1.00;;;;;;5005687;28;35634;-79
2022/07/20 09:40:23;;;;;;;9.77;6.13;;;32.10;1.00;;;;;;5051504;27;34347;-76
2022/07/20 09:42:49;;;;;;;8.05;6.22;;;32.20;1.00;;;;;;5030688;28;35650;-78
2022/07/20 09:45:22;;;;;;;7.20;5.57;;;32.00;1.00;;;;;;5035251;27;35547;-77
2022/07/20 09:48:06;;;;;;;8.95;5.85;;;32.10;1.00;;;;;;5038674;27;34352;-77
2022/07/20 09:50:36;;;;;;;7.47;5.90;;;32.40;1.00;;;;;;5028622;27;34446;-79
2022/07/20 09:53:02;;;;;;;9.55;6.07;;;32.50;1.00;;;;;;5019095;27;34437;-79
2022/07/20 09:55:31;;;;;;;7.05;5.75;;;32.50;1.00;;;;;;5012054;28;34369;-79
2022/07/20 09:57:57;;;;;;;9.52;5.93;;;32.50;1.00;;;;;;5015461;28;35694;-78
2022/07/20 10:00:24;;;;;;;9.18;5.93;;;32.40;1.00;;;;;;5021849;28;34504;-77
2022/07/20 10:02:54;;;;;;;8.25;6.15;;;32.40;1.00;;;;;;5000507;28;35559;-79
2022/07/20 10:05:22;;;;;;;8.40;5.80;;;32.50;1.00;;;;;;5018862;28;34262;-78
2022/07/20 10:07:49;;;;;;;7.72;5.65;;;32.80;1.00;;;;;;5021321;28;34317;-79
2022/07/20 10:10:15;;;;;;;7.78;5.85;;;33.00;1.00;;;;;;5014056;28;34296;-78
2022/07/20 10:12:41;;;;;;;7.05;5.68;;;33.20;1.00;;;;;;5014314;28;35908;-77
2022/07/20 10:15:13;;;;;;;8.13;5.85;;;33.20;1.00;;;;;;5019561;28;35286;-77
2022/07/20 10:17:42;;;;;;;8.55;5.88;;;33.20;1.00;;;;;;5017070;28;34249;-77
2022/07/20 10:20:30;;;;;;;7.15;5.30;;;33.20;1.00;;;;;;5002852;28;34593;-77
2022/07/20 10:23:32;;;;;;;7.35;5.30;;;33.10;1.00;;;;;;5006128;28;35548;-77
2022/07/20 10:25:58;;;;;;;7.13;4.85;;;33.30;1.00;;;;;;5027915;28;34396;-77
2022/07/20 10:28:32;;;;;;;7.28;5.18;;;33.60;1.00;;;;;;5001000;28;34297;-78
2022/07/20 10:31:11;;;;;;;7.15;5.10;;;33.70;1.00;;;;;;4995777;28;34269;-79
2022/07/20 10:33:38;;;;;;;7.53;4.78;;;33.80;1.00;;;;;;5015031;28;36902;-77
2022/07/20 10:38:56;;;;;;;6.55;4.88;;;34.10;1.00;;;;;;5024335;28;34194;-79
2022/07/20 10:44:27;;;;;;;8.15;4.72;;;34.30;1.00;;;;;;5016659;28;34859;-77
2022/07/20 10:46:55;;;;;;;9.30;4.70;;;34.60;1.00;;;;;;5025983;27;34191;-76
2022/07/20 10:49:58;;;;;;;6.18;4.85;;;34.80;1.00;;;;;;5006682;28;34237;-76
2022/07/20 10:52:30;;;;;;;9.60;5.03;;;34.90;1.00;;;;;;5007915;28;34113;-76
2022/07/20 10:54:55;;;;;;;7.95;4.57;;;35.00;1.00;;;;;;4999025;28;35457;-79
2022/07/20 10:57:22;;;;;;;5.13;4.35;;;35.10;1.00;;;;;;5016976;28;34269;-76
2022/07/20 11:00:03;;;;;;;6.30;4.15;;;35.10;1.00;;;;;;5011947;28;34073;-76
2022/07/20 11:02:34;;;;;;;7.30;4.65;;;35.00;1.00;;;;;;5000399;28;34523;-76
2022/07/20 11:05:01;;;;;;;7.80;4.38;;;35.10;1.00;;;;;;5000686;28;35601;-78
2022/07/20 11:07:31;;;;;;;7.68;4.25;;;35.10;1.00;;;;;;5019704;27;34293;-77
2022/07/20 11:10:18;;;;;;;7.85;4.18;;;35.20;1.00;;;;;;5019897;27;34265;-78
2022/07/20 11:12:58;;;;;;;4.97;4.18;;;35.40;1.00;;;;;;5004510;28;34179;-77
2022/07/20 11:15:51;;;;;;;5.57;4.28;;;35.30;1.00;;;;;;5015399;28;34266;-76
2022/07/20 11:18:20;;;;;;;5.00;4.30;;;35.30;1.00;;;;;;5031718;28;34192;-77
2022/07/20 11:21:06;;;;;;;6.78;4.38;;;35.30;1.00;;;;;;5039475;27;34441;-78
2022/07/20 11:23:47;;;;;;;4.93;3.97;;;35.20;1.00;;;;;;5001797;27;34871;-76
2022/07/20 11:26:15;;;;;;;5.60;3.85;;;35.00;1.00;;;;;;5018952;28;35748;-77
2022/07/20 11:28:47;;;;;;;5.22;3.90;;;35.00;1.00;;;;;;4998824;28;34712;-76
2022/07/20 11:31:14;;;;;;;4.55;3.60;;;35.10;1.00;;;;;;5017847;27;34580;-78
2022/07/20 11:33:43;;;;;;;6.95;4.45;;;35.10;1.00;;;;;;5010919;28;34234;-75
2022/07/20 11:36:12;;;;;;;6.38;4.15;;;35.10;1.00;;;;;;5008252;28;35828;-76
2022/07/20 11:38:41;;;;;;;5.90;3.72;;;35.20;1.00;;;;;;5015063;28;34355;-78
2022/07/20 11:41:11;;;;;;;7.88;3.97;;;35.20;1.00;;;;;;4995872;28;34106;-76
2022/07/20 11:43:38;;;;;;;3.95;3.60;;;35.10;1.00;;;;;;5008940;27;34672;-76
2022/07/20 11:46:25;;;;;;;5.22;4.03;;;35.20;1.00;;;;;;5019122;28;35822;-76
2022/07/20 11:48:56;;;;;;;5.32;4.03;;;35.40;1.00;;;;;;5014494;28;34324;-76
2022/07/20 11:51:22;;;;;;;4.22;3.70;;;35.60;1.00;;;;;;5041945;28;34045;-78
2022/07/20 11:54:06;;;;;;;4.63;4.10;;;35.60;1.00;;;;;;5011943;28;34158;-79
2022/07/20 11:56:34;;;;;;;5.70;3.63;;;35.70;1.00;;;;;;5017634;28;36531;-76
2022/07/20 11:59:02;;;;;;;5.18;3.40;;;35.90;1.00;;;;;;4996888;28;34956;-76
2022/07/20 12:01:31;;;;;;;4.05;3.60;;;36.00;1.00;;;;;;5002497;28;34208;-77
2022/07/20 12:04:00;;;;;;;3.80;3.33;;;36.00;1.00;;;;;;4996433;28;34416;-77
2022/07/20 12:06:28;;;;;;;5.75;3.70;;;36.10;1.00;;;;;;5021062;28;35793;-76
2022/07/20 12:09:12;;;;;;;4.65;3.38;;;36.30;1.00;;;;;;5002705;28;34291;-77
2022/07/20 12:11:56;;;;;;;5.78;3.50;;;36.60;1.00;;;;;;5001857;28;34120;-76
2022/07/20 12:14:34;;;;;;;5.22;3.65;;;36.70;1.00;;;;;;5019041;28;35343;-77
2022/07/20 12:17:23;;;;;;;5.38;3.53;;;36.60;1.00;;;;;;5019092;28;35783;-76
2022/07/20 12:19:51;;;;;;;3.83;3.42;;;36.70;1.00;;;;;;4964291;28;34118;-76
2022/07/20 12:22:20;;;;;;;3.40;2.92;;;36.90;1.00;;;;;;4981642;28;34408;-77
2022/07/20 12:24:51;;;;;;;4.80;3.60;;;37.00;1.00;;;;;;4982662;28;34445;-77
2022/07/20 12:27:18;;;;;;;4.07;2.95;;;36.90;1.00;;;;;;4998684;28;34450;-76
2022/07/20 12:29:44;;;;;;;3.08;2.88;;;36.60;1.00;;;;;;4999836;28;34261;-76
2022/07/20 12:32:10;;;;;;;3.78;3.42;;;36.50;1.00;;;;;;4981292;28;34199;-79
2022/07/20 12:34:53;;;;;;;4.40;3.08;;;36.40;1.00;;;;;;4986727;28;34272;-76
2022/07/20 12:37:20;;;;;;;3.60;3.08;;;36.30;1.00;;;;;;4965147;28;35680;-76
2022/07/20 12:39:49;;;;;;;3.17;2.85;;;36.10;1.00;;;;;;4985681;28;34196;-76
2022/07/20 12:42:20;;;;;;;3.10;2.67;;;35.90;1.00;;;;;;5017452;28;34283;-75
2022/07/20 12:44:47;;;;;;;6.45;2.92;;;35.70;1.00;;;;;;5001451;28;34342;-75
2022/07/20 12:47:16;;;;;;;2.75;2.55;;;35.80;1.00;;;;;;4994700;28;36569;-80
2022/07/20 12:49:42;;;;;;;2.88;2.67;;;35.80;1.00;;;;;;5022212;28;35518;-76
2022/07/20 12:52:08;;;;;;;3.10;2.80;;;35.80;1.00;;;;;;5030829;28;34289;-75
2022/07/20 12:54:34;;;;;;;4.28;2.85;;;35.70;1.00;;;;;;5040910;28;34492;-76
2022/07/20 12:57:00;;;;;;;4.13;2.90;;;35.60;1.00;;;;;;5038520;28;35461;-76
2022/07/20 12:59:26;;;;;;;3.95;2.90;;;35.60;1.00;;;;;;5031545;28;34238;-79
2022/07/20 13:01:53;;;;;;;3.35;2.90;;;35.60;1.00;;;;;;5022203;28;34273;-77
2022/07/20 13:04:21;;;;;;;5.82;2.95;;;35.60;1.00;;;;;;5024000;28;35201;-76
2022/07/20 13:06:48;;;;;;;4.55;2.65;;;35.50;1.00;;;;;;5017981;28;35306;-77